Time;durP1;ratioP1;P1;durP2;ratioP2;P2;SDS_P1;SDS_P2;PMS_P1;PMS_P2;Temp;Humidity;BMP_temperature;BMP_pressure;BME280_temperature;BME280_humidity;BME280_pressure;Samples;Min_cycle;Max_cycle;Signal;HPM_P1;HPM_P2
2022/11/16 00:00:22;;;;;;;0.00;0.00;;;10.80;99.90;;;;;;5115287;28;20058;-81
2022/11/16 00:02:50;;;;;;;0.00;0.00;;;11.00;99.90;;;;;;5099106;28;20475;-81
2022/11/16 00:05:18;;;;;;;0.22;0.20;;;10.80;99.90;;;;;;5099324;28;20046;-81
2022/11/16 00:07:44;;;;;;;0.00;0.00;;;10.80;99.90;;;;;;5116269;28;20055;-81
2022/11/16 00:10:10;;;;;;;0.40;0.00;;;10.90;99.90;;;;;;5098803;28;20145;-81
2022/11/16 00:12:36;;;;;;;0.00;0.00;;;10.80;99.90;;;;;;5115996;28;20051;-81
2022/11/16 00:15:03;;;;;;;0.10;0.10;;;10.80;99.90;;;;;;5116066;28;20519;-81
2022/11/16 00:17:29;;;;;;;0.00;0.00;;;10.80;99.90;;;;;;5102325;27;20051;-81
2022/11/16 00:19:54;;;;;;;0.00;0.00;;;10.80;99.90;;;;;;5119661;27;20035;-81
2022/11/16 00:22:20;;;;;;;0.00;0.00;;;10.80;99.90;;;;;;5119622;27;20043;-81
2022/11/16 00:24:46;;;;;;;0.10;0.10;;;10.90;99.90;;;;;;5119543;27;20043;-81
2022/11/16 00:27:11;;;;;;;0.32;0.08;;;10.90;99.90;;;;;;5119498;27;20039;-81
2022/11/16 00:29:37;;;;;;;0.10;0.10;;;10.90;99.90;;;;;;5102290;27;20043;-81
2022/11/16 00:32:03;;;;;;;0.00;0.00;;;10.90;99.90;;;;;;5102595;27;20125;-82
2022/11/16 00:34:29;;;;;;;0.10;0.10;;;10.90;99.90;;;;;;5119287;27;20558;-81
2022/11/16 00:36:54;;;;;;;0.25;0.25;;;10.90;99.90;;;;;;5119266;27;20043;-81
2022/11/16 00:39:20;;;;;;;0.00;0.00;;;11.00;99.90;;;;;;5119368;27;20082;-81
2022/11/16 00:41:46;;;;;;;0.00;0.00;;;10.90;99.90;;;;;;5119201;27;20075;-81
2022/11/16 00:44:12;;;;;;;0.10;0.10;;;10.90;99.90;;;;;;5102645;27;20046;-81
2022/11/16 00:46:38;;;;;;;0.05;0.05;;;10.90;99.90;;;;;;5102058;27;20410;-81
2022/11/16 00:49:04;;;;;;;0.35;0.35;;;10.90;99.90;;;;;;5102360;27;20047;-82
2022/11/16 00:51:30;;;;;;;0.00;0.00;;;10.90;99.90;;;;;;5119032;27;20038;-82
2022/11/16 00:53:56;;;;;;;0.00;0.00;;;11.00;99.90;;;;;;5102542;27;20084;-82
2022/11/16 00:56:22;;;;;;;0.25;0.25;;;11.00;99.90;;;;;;5118546;27;20043;-81
2022/11/16 00:58:47;;;;;;;0.08;0.08;;;11.00;99.90;;;;;;5119020;27;20483;-81
2022/11/16 01:01:13;;;;;;;0.10;0.10;;;10.90;99.90;;;;;;5101666;27;20039;-82
2022/11/16 01:03:39;;;;;;;0.00;0.00;;;10.90;99.90;;;;;;5118880;27;20090;-82
2022/11/16 01:06:12;;;;;;;0.28;0.28;;;10.90;99.90;;;;;;5102058;27;20356;-82
2022/11/16 01:08:39;;;;;;;0.00;0.00;;;10.90;99.90;;;;;;5118654;27;20093;-82
2022/11/16 01:13:51;;;;;;;0.00;0.00;;;11.00;99.90;;;;;;5118588;27;20043;-82
2022/11/16 01:16:18;;;;;;;0.00;0.00;;;11.00;99.90;;;;;;5118523;27;20504;-82
2022/11/16 01:18:49;;;;;;;0.35;0.35;;;11.00;99.90;;;;;;5101618;27;20147;-82
2022/11/16 01:21:16;;;;;;;0.17;0.17;;;11.00;99.90;;;;;;5118579;27;20050;-82
2022/11/16 01:23:42;;;;;;;0.00;0.00;;;11.00;99.90;;;;;;5118447;27;20486;-82
2022/11/16 01:26:07;;;;;;;0.28;0.28;;;11.00;99.90;;;;;;5101456;27;20047;-82
2022/11/16 01:28:33;;;;;;;0.00;0.00;;;11.00;99.90;;;;;;5101450;27;20470;-82
2022/11/16 01:30:59;;;;;;;0.20;0.10;;;11.10;99.90;;;;;;5101489;27;20394;-83
2022/11/16 01:33:24;;;;;;;0.00;0.00;;;11.00;99.90;;;;;;5101053;27;20043;-83
2022/11/16 01:35:50;;;;;;;0.20;0.00;;;11.00;99.90;;;;;;5101322;27;20051;-83
2022/11/16 01:38:16;;;;;;;1.30;0.20;;;11.00;99.90;;;;;;5118218;27;20082;-83
2022/11/16 01:40:42;;;;;;;0.00;0.00;;;11.10;99.90;;;;;;5118591;27;20054;-82
2022/11/16 01:43:26;;;;;;;0.00;0.00;;;11.10;99.90;;;;;;5100987;27;20394;-82
2022/11/16 01:45:52;;;;;;;0.35;0.00;;;11.20;99.90;;;;;;5118090;27;20043;-84
2022/11/16 01:48:25;;;;;;;0.45;0.30;;;11.10;99.90;;;;;;5100860;27;20069;-83
2022/11/16 01:50:52;;;;;;;0.10;0.10;;;11.10;99.90;;;;;;5101185;27;20379;-83
2022/11/16 01:53:19;;;;;;;0.03;0.03;;;11.10;99.90;;;;;;5100680;27;20414;-83
2022/11/16 01:55:47;;;;;;;0.15;0.10;;;11.10;99.90;;;;;;5096797;28;20064;-83
2022/11/16 01:58:17;;;;;;;0.00;0.00;;;11.00;99.90;;;;;;5114224;28;20044;-83
2022/11/16 02:00:44;;;;;;;0.40;0.30;;;11.00;99.90;;;;;;5097435;28;20043;-84
2022/11/16 02:03:09;;;;;;;0.00;0.00;;;11.10;99.90;;;;;;5097534;28;20043;-81
2022/11/16 02:05:59;;;;;;;0.00;0.00;;;11.00;99.90;;;;;;5097012;28;20372;-82
2022/11/16 02:11:57;;;;;;;0.00;0.00;;;11.00;99.90;;;;;;5114001;28;20487;-83
2022/11/16 02:14:28;;;;;;;0.10;0.00;;;11.10;99.90;;;;;;5097288;28;20079;-83
2022/11/16 02:17:14;;;;;;;0.15;0.15;;;11.00;99.90;;;;;;5096805;28;20051;-83
2022/11/16 02:19:56;;;;;;;;;;;11.10;99.90;;;;;;5114564;28;20044;-83
2022/11/16 02:22:40;;;;;;;0.00;0.00;;;11.10;99.90;;;;;;5114351;28;19926;-82
2022/11/16 02:25:21;;;;;;;0.10;0.00;;;11.10;99.90;;;;;;5097384;28;20140;-83
2022/11/16 02:28:04;;;;;;;0.10;0.00;;;11.10;99.90;;;;;;5113699;28;20035;-82
2022/11/16 02:30:30;;;;;;;0.00;0.00;;;11.10;99.90;;;;;;5096954;28;20051;-82
2022/11/16 02:33:03;;;;;;;1.17;0.35;;;11.10;99.90;;;;;;5096895;28;20126;-82
2022/11/16 02:35:55;;;;;;;0.35;0.22;;;11.10;99.90;;;;;;5096535;28;20093;-83
2022/11/16 02:38:30;;;;;;;0.00;0.00;;;11.10;99.90;;;;;;5096061;28;20084;-83
2022/11/16 02:41:10;;;;;;;1.13;0.22;;;11.10;99.90;;;;;;5096579;28;20055;-83
2022/11/16 02:43:49;;;;;;;0.60;0.30;;;11.00;99.90;;;;;;5113875;28;20086;-83
2022/11/16 02:46:22;;;;;;;0.00;0.00;;;11.00;99.90;;;;;;5113490;28;20058;-83
2022/11/16 02:48:53;;;;;;;0.15;0.00;;;11.00;99.90;;;;;;5113968;28;20043;-84
2022/11/16 02:51:20;;;;;;;0.00;0.00;;;11.00;99.90;;;;;;5096576;28;20040;-84
2022/11/16 02:54:11;;;;;;;0.00;0.00;;;11.00;99.90;;;;;;5096047;28;20126;-84
2022/11/16 02:57:01;;;;;;;0.00;0.00;;;11.00;99.90;;;;;;5095688;28;20051;-84
2022/11/16 02:59:38;;;;;;;0.52;0.43;;;11.00;99.90;;;;;;5113280;28;20411;-83
2022/11/16 03:02:28;;;;;;;0.00;0.00;;;11.00;99.90;;;;;;5096155;28;20096;-83
2022/11/16 03:05:10;;;;;;;0.00;0.00;;;11.00;99.90;;;;;;5113419;28;20050;-83
2022/11/16 03:07:44;;;;;;;0.77;0.32;;;11.00;99.90;;;;;;5113422;28;20061;-83
2022/11/16 03:10:10;;;;;;;0.20;0.00;;;11.00;99.90;;;;;;5096730;28;20074;-83
2022/11/16 03:12:38;;;;;;;0.00;0.00;;;10.90;99.90;;;;;;5096251;28;20096;-83
2022/11/16 03:15:06;;;;;;;0.00;0.00;;;11.00;99.90;;;;;;5095956;28;20506;-82
2022/11/16 03:17:45;;;;;;;0.20;0.20;;;10.90;99.90;;;;;;5096017;28;20048;-84
2022/11/16 03:20:19;;;;;;;0.00;0.00;;;11.00;99.90;;;;;;5113332;28;20048;-83
2022/11/16 03:22:49;;;;;;;0.22;0.20;;;11.00;99.90;;;;;;5096115;28;20127;-83
2022/11/16 03:25:19;;;;;;;0.10;0.05;;;10.90;99.90;;;;;;5113435;28;20032;-81
2022/11/16 03:28:06;;;;;;;0.15;0.10;;;10.90;99.90;;;;;;5113100;28;20414;-82
2022/11/16 03:30:38;;;;;;;0.00;0.00;;;10.90;99.90;;;;;;5113038;28;20056;-82
2022/11/16 03:33:19;;;;;;;0.15;0.15;;;10.90;99.90;;;;;;5095550;28;20094;-82
2022/11/16 03:35:51;;;;;;;0.00;0.00;;;10.90;99.90;;;;;;5096374;28;20040;-82
2022/11/16 03:38:19;;;;;;;0.00;0.00;;;10.90;99.90;;;;;;5112919;28;20040;-83
2022/11/16 03:40:46;;;;;;;0.20;0.13;;;10.80;99.90;;;;;;5112811;28;20040;-82
2022/11/16 03:43:13;;;;;;;0.00;0.00;;;10.90;99.90;;;;;;5112909;28;20047;-80
2022/11/16 03:45:40;;;;;;;0.00;0.00;;;11.00;99.90;;;;;;5112908;28;20487;-81
2022/11/16 03:48:06;;;;;;;0.55;0.40;;;10.90;99.90;;;;;;5095734;28;20052;-80
2022/11/16 03:50:32;;;;;;;0.10;0.10;;;10.90;99.90;;;;;;5113481;28;20050;-80
2022/11/16 03:52:57;;;;;;;0.22;0.20;;;10.90;99.90;;;;;;5116661;28;20071;-81
2022/11/16 03:55:23;;;;;;;0.00;0.00;;;10.90;99.90;;;;;;5099265;28;20083;-82
2022/11/16 03:57:49;;;;;;;0.38;0.38;;;10.90;99.90;;;;;;5098339;28;20098;-82
2022/11/16 04:00:14;;;;;;;0.00;0.00;;;10.80;99.90;;;;;;5116641;28;20056;-83
2022/11/16 04:02:40;;;;;;;0.08;0.00;;;10.80;99.90;;;;;;5099502;28;20043;-83
2022/11/16 04:24:30;;;;;;;0.00;0.00;;;10.80;99.90;;;;;;5115929;28;20475;-82
2022/11/16 04:29:44;;;;;;;0.20;0.10;;;10.70;99.90;;;;;;5116334;28;20090;-82
2022/11/16 04:37:48;;;;;;;0.20;0.20;;;10.70;99.90;;;;;;5116329;28;20063;-82
2022/11/16 04:40:15;;;;;;;0.00;0.00;;;10.70;99.90;;;;;;5115525;28;20559;-82
2022/11/16 04:42:41;;;;;;;0.00;0.00;;;10.70;99.90;;;;;;5098755;28;20036;-81
2022/11/16 04:47:51;;;;;;;0.15;0.05;;;10.70;99.90;;;;;;5095859;28;20048;-82
2022/11/16 04:50:18;;;;;;;0.20;0.20;;;10.70;99.90;;;;;;5078535;28;20050;-82
2022/11/16 04:52:44;;;;;;;0.00;0.00;;;10.70;99.90;;;;;;5094573;28;20044;-82
2022/11/16 04:55:10;;;;;;;0.00;0.00;;;10.80;99.90;;;;;;5078229;28;20055;-82
2022/11/16 04:57:36;;;;;;;0.10;0.00;;;10.80;99.90;;;;;;5094920;28;20545;-82
2022/11/16 05:00:04;;;;;;;0.00;0.00;;;10.70;99.90;;;;;;5078155;28;20048;-82
2022/11/16 05:02:30;;;;;;;2.38;0.57;;;10.70;99.90;;;;;;5077663;28;20060;-82
2022/11/16 05:04:55;;;;;;;0.80;0.10;;;10.70;99.90;;;;;;5094975;28;20484;-82
2022/11/16 05:07:21;;;;;;;0.00;0.00;;;10.70;99.90;;;;;;5077858;28;20465;-82
2022/11/16 05:09:47;;;;;;;0.00;0.00;;;10.70;99.90;;;;;;5078098;28;20077;-82
2022/11/16 05:12:17;;;;;;;0.10;0.00;;;10.70;99.90;;;;;;5077873;28;20040;-82
2022/11/16 05:14:43;;;;;;;0.00;0.00;;;10.80;99.90;;;;;;5094710;28;20048;-82
2022/11/16 05:17:09;;;;;;;0.13;0.10;;;10.80;99.90;;;;;;5095244;28;20048;-82
2022/11/16 05:22:19;;;;;;;0.00;0.00;;;10.70;99.90;;;;;;5094386;28;20527;-82
2022/11/16 05:24:44;;;;;;;0.00;0.00;;;10.70;99.90;;;;;;5077500;28;20070;-82
2022/11/16 05:27:13;;;;;;;0.10;0.10;;;10.70;99.90;;;;;;5077368;28;20438;-82
2022/11/16 05:29:39;;;;;;;0.10;0.03;;;10.70;99.90;;;;;;5077743;28;20055;-82
2022/11/16 05:32:05;;;;;;;0.00;0.00;;;10.80;99.90;;;;;;5094442;28;20040;-82
2022/11/16 05:34:31;;;;;;;0.50;0.00;;;10.70;99.90;;;;;;5094117;28;20040;-82
2022/11/16 05:36:57;;;;;;;0.00;0.00;;;10.60;99.90;;;;;;5077451;28;20093;-83
2022/11/16 05:39:23;;;;;;;0.00;0.00;;;10.70;99.90;;;;;;5077230;28;20054;-83
2022/11/16 05:41:49;;;;;;;0.20;0.20;;;10.60;99.90;;;;;;5094175;28;20082;-83
2022/11/16 05:44:15;;;;;;;0.00;0.00;;;10.80;99.90;;;;;;5094172;28;20404;-83
2022/11/16 05:46:42;;;;;;;0.15;0.10;;;10.60;99.90;;;;;;5077180;28;20131;-83
2022/11/16 05:49:08;;;;;;;0.00;0.00;;;10.70;99.90;;;;;;5077169;28;20054;-83
2022/11/16 05:51:35;;;;;;;0.00;0.00;;;10.70;99.90;;;;;;5094086;28;20044;-83
2022/11/16 05:54:01;;;;;;;0.00;0.00;;;10.60;99.90;;;;;;5076703;28;20495;-83
2022/11/16 05:56:27;;;;;;;0.10;0.10;;;10.70;99.90;;;;;;5095743;28;20142;-83
2022/11/16 05:58:53;;;;;;;0.00;0.00;;;10.70;99.90;;;;;;5092908;28;20059;-83
2022/11/16 06:01:19;;;;;;;0.60;0.25;;;10.60;99.90;;;;;;5094009;28;20051;-83
2022/11/16 06:03:45;;;;;;;0.52;0.13;;;10.60;99.90;;;;;;5093802;28;20128;-83
2022/11/16 06:06:11;;;;;;;0.20;0.00;;;10.70;99.90;;;;;;5076644;28;20052;-82
2022/11/16 06:08:36;;;;;;;0.10;0.00;;;10.70;99.90;;;;;;5093592;28;20044;-83
2022/11/16 06:11:08;;;;;;;0.08;0.08;;;10.60;99.90;;;;;;5076763;28;20101;-82
2022/11/16 06:13:34;;;;;;;0.40;0.10;;;10.70;99.90;;;;;;5076226;28;20044;-82
2022/11/16 06:16:01;;;;;;;0.00;0.00;;;10.70;99.90;;;;;;5077028;28;20052;-82
2022/11/16 06:18:27;;;;;;;0.28;0.15;;;10.70;99.90;;;;;;5076527;28;20381;-82
2022/11/16 06:20:52;;;;;;;0.00;0.00;;;10.70;99.90;;;;;;5093163;28;20058;-83
2022/11/16 06:23:18;;;;;;;0.28;0.20;;;10.70;99.90;;;;;;5076447;28;20044;-82
2022/11/16 06:25:44;;;;;;;0.03;0.00;;;10.70;99.90;;;;;;5076551;28;20083;-82
2022/11/16 06:28:09;;;;;;;0.00;0.00;;;10.70;99.90;;;;;;5076341;28;20060;-80
2022/11/16 06:30:40;;;;;;;0.00;0.00;;;10.70;99.90;;;;;;5076357;28;20040;-81
2022/11/16 06:33:06;;;;;;;0.10;0.03;;;10.70;99.90;;;;;;5092572;28;20551;-79
2022/11/16 06:35:32;;;;;;;0.00;0.00;;;10.60;99.90;;;;;;5076209;28;20039;-80
2022/11/16 06:37:57;;;;;;;1.45;0.17;;;10.70;99.90;;;;;;5092776;28;20480;-81
2022/11/16 06:40:24;;;;;;;0.00;0.00;;;10.70;99.90;;;;;;5092802;28;20060;-79
2022/11/16 06:42:50;;;;;;;0.00;0.00;;;10.70;99.90;;;;;;5092973;28;20051;-80
2022/11/16 06:45:15;;;;;;;0.00;0.00;;;10.70;99.90;;;;;;5093111;28;20043;-80
2022/11/16 06:47:41;;;;;;;0.30;0.30;;;10.80;99.90;;;;;;5092815;28;20040;-81
2022/11/16 06:50:07;;;;;;;0.10;0.00;;;10.70;99.90;;;;;;5076176;28;20057;-81
2022/11/16 06:52:33;;;;;;;0.00;0.00;;;10.80;99.90;;;;;;5076163;28;20044;-81
2022/11/16 06:54:58;;;;;;;0.00;0.00;;;10.80;99.90;;;;;;5075991;28;20142;-81
2022/11/16 06:57:24;;;;;;;0.80;0.30;;;10.80;99.90;;;;;;5092962;28;20062;-81
2022/11/16 06:59:50;;;;;;;0.00;0.00;;;10.80;99.90;;;;;;5092411;28;20048;-82
2022/11/16 07:02:15;;;;;;;0.00;0.00;;;10.80;99.90;;;;;;5076092;28;20079;-82
2022/11/16 07:04:41;;;;;;;0.15;0.15;;;10.80;99.90;;;;;;5092444;28;20052;-82
2022/11/16 07:07:07;;;;;;;0.10;0.10;;;10.80;99.90;;;;;;5092787;28;20131;-82
2022/11/16 07:09:32;;;;;;;0.00;0.00;;;10.80;99.90;;;;;;5075926;28;20470;-82
2022/11/16 07:11:58;;;;;;;0.00;0.00;;;10.80;99.90;;;;;;5075928;28;20522;-83
2022/11/16 07:14:23;;;;;;;0.00;0.00;;;10.80;99.90;;;;;;5075594;28;20146;-82
2022/11/16 07:16:49;;;;;;;0.05;0.00;;;10.80;99.90;;;;;;5092869;28;20074;-84
2022/11/16 07:19:15;;;;;;;0.00;0.00;;;10.80;99.90;;;;;;5075559;28;20075;-82
2022/11/16 07:21:40;;;;;;;0.00;0.00;;;10.80;99.90;;;;;;5075593;28;20078;-82
2022/11/16 07:24:06;;;;;;;4.68;0.00;;;10.80;99.90;;;;;;5075847;28;20036;-82
2022/11/16 07:26:33;;;;;;;0.00;0.00;;;10.80;99.90;;;;;;5079764;28;20044;-81
2022/11/16 07:28:59;;;;;;;0.00;0.00;;;10.80;99.90;;;;;;5079685;28;20051;-81
2022/11/16 07:31:25;;;;;;;0.00;0.00;;;10.80;99.90;;;;;;5079685;28;20048;-81
2022/11/16 07:33:51;;;;;;;0.10;0.00;;;10.80;99.90;;;;;;5079421;28;20044;-82
2022/11/16 07:36:17;;;;;;;0.00;0.00;;;10.80;99.90;;;;;;5079641;28;20043;-81
2022/11/16 07:38:43;;;;;;;0.00;0.00;;;10.80;99.90;;;;;;5096694;28;20043;-81
2022/11/16 07:41:11;;;;;;;0.00;0.00;;;10.80;99.90;;;;;;5096583;28;20044;-81
2022/11/16 07:43:38;;;;;;;0.00;0.00;;;10.80;99.90;;;;;;5096884;28;20055;-81
2022/11/16 07:46:13;;;;;;;0.00;0.00;;;10.80;99.90;;;;;;5096685;28;20097;-81
2022/11/16 07:48:41;;;;;;;0.00;0.00;;;10.80;99.90;;;;;;5096363;28;20040;-81
2022/11/16 07:51:09;;;;;;;0.00;0.00;;;10.80;99.90;;;;;;5096265;28;20043;-80
2022/11/16 07:53:36;;;;;;;0.32;0.15;;;10.80;99.90;;;;;;5096558;28;20098;-80
2022/11/16 07:56:02;;;;;;;0.40;0.00;;;10.80;99.90;;;;;;5078883;28;20574;-80
2022/11/16 07:58:30;;;;;;;0.00;0.00;;;10.80;99.90;;;;;;5082443;28;20059;-79
2022/11/16 08:01:03;;;;;;;0.00;0.00;;;10.80;99.90;;;;;;5082675;28;20479;-80
2022/11/16 08:03:30;;;;;;;0.00;0.00;;;10.80;99.90;;;;;;5099814;28;20055;-79
2022/11/16 08:06:01;;;;;;;0.00;0.00;;;10.80;99.90;;;;;;5099395;28;20100;-79
2022/11/16 08:08:27;;;;;;;0.08;0.08;;;10.80;99.90;;;;;;5099399;28;20535;-79
2022/11/16 08:11:01;;;;;;;0.20;0.10;;;10.80;99.90;;;;;;5082471;28;20044;-80
2022/11/16 08:13:28;;;;;;;0.13;0.13;;;10.80;99.90;;;;;;5082306;28;20173;-80
2022/11/16 08:15:54;;;;;;;0.00;0.00;;;10.90;99.90;;;;;;5099246;28;20481;-81
2022/11/16 08:18:20;;;;;;;0.00;0.00;;;10.80;99.90;;;;;;5099759;28;20131;-81
2022/11/16 08:20:45;;;;;;;0.00;0.00;;;10.80;99.90;;;;;;5082489;28;20043;-81
2022/11/16 08:23:11;;;;;;;0.00;0.00;;;10.80;99.90;;;;;;5082410;28;20181;-80
2022/11/16 08:25:37;;;;;;;0.32;0.17;;;10.90;99.90;;;;;;5081926;28;20176;-81
2022/11/16 08:28:02;;;;;;;0.00;0.00;;;10.90;99.90;;;;;;5082250;28;20048;-83
2022/11/16 08:30:28;;;;;;;0.10;0.10;;;10.90;99.90;;;;;;5098715;28;20046;-81
2022/11/16 08:32:54;;;;;;;0.63;0.52;;;10.90;99.90;;;;;;5098999;28;20089;-81
2022/11/16 08:35:20;;;;;;;0.15;0.15;;;10.90;99.90;;;;;;5080795;28;20499;-81
2022/11/16 08:37:46;;;;;;;2.60;0.60;;;11.00;99.90;;;;;;5097920;28;20043;-81
2022/11/16 08:40:13;;;;;;;0.00;0.00;;;11.00;99.90;;;;;;5081949;28;20449;-82
2022/11/16 08:42:38;;;;;;;0.10;0.10;;;11.00;99.90;;;;;;5099800;27;20390;-81
2022/11/16 08:45:05;;;;;;;0.00;0.00;;;11.00;99.90;;;;;;5119395;27;20121;-83
2022/11/16 08:47:31;;;;;;;0.20;0.20;;;11.00;99.90;;;;;;5102082;27;20051;-82
2022/11/16 08:49:56;;;;;;;0.00;0.00;;;11.10;99.90;;;;;;5101991;27;20054;-79
2022/11/16 08:52:22;;;;;;;0.00;0.00;;;11.10;99.90;;;;;;5101850;27;20039;-79
2022/11/16 08:54:48;;;;;;;0.00;0.00;;;11.10;99.90;;;;;;5101380;27;20081;-79
2022/11/16 08:57:13;;;;;;;0.08;0.00;;;11.20;99.90;;;;;;5118603;27;20090;-79
2022/11/16 08:59:39;;;;;;;0.08;0.00;;;11.20;99.90;;;;;;5118767;27;20055;-79
2022/11/16 09:02:05;;;;;;;1.55;0.30;;;11.20;99.90;;;;;;5101836;27;20043;-80
2022/11/16 09:04:30;;;;;;;0.03;0.03;;;11.30;99.90;;;;;;5118926;27;20031;-80
2022/11/16 09:06:56;;;;;;;0.00;0.00;;;11.30;99.90;;;;;;5118536;27;20359;-80
2022/11/16 09:09:22;;;;;;;0.22;0.15;;;11.40;99.90;;;;;;5118763;27;20047;-80
2022/11/16 09:11:50;;;;;;;0.45;0.10;;;11.30;99.90;;;;;;5118479;27;20101;-80
2022/11/16 09:14:16;;;;;;;0.00;0.00;;;11.40;99.90;;;;;;5118518;27;20050;-79
2022/11/16 09:16:42;;;;;;;0.20;0.03;;;11.40;99.90;;;;;;5119082;27;20035;-80
2022/11/16 09:19:07;;;;;;;0.15;0.10;;;11.40;99.90;;;;;;5101326;27;20513;-79
2022/11/16 09:21:35;;;;;;;0.10;0.10;;;11.50;99.90;;;;;;5101750;27;20039;-79
2022/11/16 09:24:01;;;;;;;0.00;0.00;;;11.40;99.90;;;;;;5100474;27;20483;-79
2022/11/16 09:26:27;;;;;;;0.20;0.20;;;11.50;99.90;;;;;;5101336;27;20055;-79
2022/11/16 09:28:58;;;;;;;0.10;0.00;;;11.60;99.90;;;;;;5118079;27;20124;-80
2022/11/16 09:31:27;;;;;;;0.00;0.00;;;11.60;99.90;;;;;;5101513;27;20062;-79
2022/11/16 09:33:57;;;;;;;1.17;0.20;;;11.80;99.90;;;;;;5118297;27;20144;-80
2022/11/16 09:36:23;;;;;;;4.03;0.52;;;12.20;99.90;;;;;;5118122;27;20509;-79
2022/11/16 09:38:49;;;;;;;0.00;0.00;;;12.70;99.90;;;;;;5117901;27;20482;-79
2022/11/16 09:41:14;;;;;;;0.10;0.10;;;13.20;99.90;;;;;;5100439;27;20465;-79
2022/11/16 09:43:52;;;;;;;0.00;0.00;;;13.40;99.90;;;;;;5101038;27;20184;-79
2022/11/16 09:46:24;;;;;;;0.00;0.00;;;13.60;99.90;;;;;;5101516;27;20453;-79
2022/11/16 09:48:51;;;;;;;0.10;0.08;;;13.40;99.90;;;;;;5117903;27;20046;-79
2022/11/16 09:51:21;;;;;;;0.13;0.13;;;13.30;99.90;;;;;;5100567;27;20483;-79
2022/11/16 09:53:54;;;;;;;0.00;0.00;;;13.10;99.90;;;;;;5117814;27;20440;-79
2022/11/16 09:56:24;;;;;;;0.43;0.08;;;13.20;99.90;;;;;;5117899;27;20043;-79
2022/11/16 09:59:04;;;;;;;1.35;0.20;;;12.90;99.90;;;;;;5100547;27;20056;-79
2022/11/16 10:01:36;;;;;;;3.95;0.10;;;12.70;99.90;;;;;;5117827;27;20066;-79
2022/11/16 10:04:14;;;;;;;0.45;0.45;;;12.60;99.90;;;;;;5100714;27;20146;-79
2022/11/16 10:07:06;;;;;;;0.85;0.20;;;12.80;99.90;;;;;;5100448;27;20095;-79
2022/11/16 10:09:33;;;;;;;0.10;0.10;;;13.10;99.90;;;;;;5100532;27;20475;-79
2022/11/16 10:12:08;;;;;;;1.30;0.35;;;13.50;99.90;;;;;;5100428;27;20525;-79
2022/11/16 10:14:48;;;;;;;0.05;0.00;;;13.80;99.90;;;;;;5117456;27;20051;-79
2022/11/16 10:17:20;;;;;;;0.00;0.00;;;14.20;99.90;;;;;;5117593;27;20046;-79
2022/11/16 10:20:11;;;;;;;0.10;0.10;;;14.40;99.90;;;;;;5117113;27;20479;-79
2022/11/16 10:22:47;;;;;;;0.00;0.00;;;14.20;99.90;;;;;;5117323;27;20100;-79
2022/11/16 10:25:20;;;;;;;0.00;0.00;;;13.70;99.90;;;;;;5100169;27;20486;-79
2022/11/16 10:28:17;;;;;;;0.00;0.00;;;13.50;99.90;;;;;;5117288;27;20043;-79
2022/11/16 10:31:03;;;;;;;1.65;0.38;;;13.80;99.90;;;;;;5100470;27;20065;-79
2022/11/16 10:33:34;;;;;;;1.45;0.10;;;14.00;99.90;;;;;;5099907;27;20042;-79
2022/11/16 10:36:03;;;;;;;0.00;0.00;;;14.00;99.90;;;;;;5099535;27;20087;-79
2022/11/16 10:38:29;;;;;;;0.00;0.00;;;13.90;99.90;;;;;;5117062;27;20425;-79
2022/11/16 10:41:18;;;;;;;0.32;0.32;;;13.80;99.90;;;;;;5099990;27;20043;-79
2022/11/16 10:43:46;;;;;;;0.00;0.00;;;13.50;99.90;;;;;;5116961;27;20057;-80
2022/11/16 10:46:32;;;;;;;0.20;0.20;;;13.10;99.90;;;;;;5117104;28;20125;-79
2022/11/16 10:49:00;;;;;;;0.00;0.00;;;13.00;99.90;;;;;;5117363;27;20385;-79
2022/11/16 10:51:26;;;;;;;0.00;0.00;;;12.90;99.90;;;;;;5116906;27;20081;-79
2022/11/16 10:53:53;;;;;;;0.03;0.03;;;12.90;99.90;;;;;;5116605;27;20119;-80
2022/11/16 10:56:30;;;;;;;0.00;0.00;;;13.30;99.90;;;;;;5116972;28;20054;-79
2022/11/16 10:58:56;;;;;;;0.00;0.00;;;13.40;99.90;;;;;;5098944;27;20542;-79
2022/11/16 11:01:38;;;;;;;0.20;0.00;;;13.50;99.90;;;;;;5116459;27;20126;-79
2022/11/16 11:04:19;;;;;;;0.00;0.00;;;13.50;99.90;;;;;;5116255;28;20063;-79
2022/11/16 11:06:47;;;;;;;0.00;0.00;;;13.40;99.90;;;;;;5100002;28;20059;-79
2022/11/16 11:09:25;;;;;;;0.10;0.10;;;13.40;99.90;;;;;;5099219;28;20494;-79
2022/11/16 11:15:17;;;;;;;0.00;0.00;;;13.50;99.90;;;;;;5015148;28;20139;-79
2022/11/16 11:17:48;;;;;;;0.00;0.00;;;13.70;99.90;;;;;;5015310;28;20112;-79
2022/11/16 11:20:16;;;;;;;0.00;0.00;;;14.00;99.90;;;;;;5015138;28;20405;-79
2022/11/16 11:22:54;;;;;;;0.00;0.00;;;14.40;99.90;;;;;;5015126;28;20041;-79
2022/11/16 11:25:38;;;;;;;0.00;0.00;;;14.70;99.90;;;;;;5031552;28;20425;-79
2022/11/16 11:28:21;;;;;;;0.00;0.00;;;15.20;99.90;;;;;;5031435;28;20049;-79
2022/11/16 11:31:15;;;;;;;0.10;0.10;;;15.70;99.90;;;;;;5015089;28;20052;-79
2022/11/16 11:33:56;;;;;;;0.00;0.00;;;15.90;99.90;;;;;;4975724;28;20057;-79
2022/11/16 11:36:31;;;;;;;0.00;0.00;;;15.80;99.90;;;;;;4959808;28;20050;-79
2022/11/16 11:39:04;;;;;;;0.05;0.05;;;15.80;99.90;;;;;;4959874;28;20058;-79
2022/11/16 11:41:34;;;;;;;0.00;0.00;;;15.80;99.90;;;;;;4960113;28;20061;-79
2022/11/16 11:44:02;;;;;;;0.00;0.00;;;15.70;99.90;;;;;;4975743;28;20058;-80
2022/11/16 11:46:29;;;;;;;0.00;0.00;;;15.40;99.90;;;;;;4959823;28;20065;-80
2022/11/16 11:49:22;;;;;;;0.00;0.00;;;15.20;99.90;;;;;;4975699;28;20047;-79
2022/11/16 11:51:49;;;;;;;0.00;0.00;;;15.20;99.90;;;;;;5020104;28;20151;-79
2022/11/16 11:54:26;;;;;;;0.00;0.00;;;15.00;99.90;;;;;;5037326;28;20646;-80
2022/11/16 11:56:52;;;;;;;0.20;0.20;;;14.90;99.90;;;;;;5054290;28;20052;-81
2022/11/16 11:59:21;;;;;;;0.10;0.05;;;14.80;99.90;;;;;;5054507;28;20060;-80
2022/11/16 12:02:16;;;;;;;0.00;0.00;;;14.80;99.90;;;;;;5054698;28;20525;-79
2022/11/16 12:05:26;;;;;;;0.00;0.00;;;14.90;99.90;;;;;;5036834;28;20085;-80
2022/11/16 12:08:00;;;;;;;0.00;0.00;;;15.20;99.90;;;;;;5037326;28;20092;-79
2022/11/16 12:10:26;;;;;;;;;;;14.80;99.90;;;;;;5082137;27;20094;-79
2022/11/16 12:13:25;;;;;;;0.00;0.00;;;14.60;99.90;;;;;;5101468;27;19974;-79
2022/11/16 12:16:25;;;;;;;0.00;0.00;;;14.40;99.90;;;;;;5119753;27;20043;-79
2022/11/16 12:19:00;;;;;;;5.55;0.32;;;14.20;99.90;;;;;;5102286;27;20051;-79
2022/11/16 12:21:47;;;;;;;0.10;0.03;;;14.00;99.90;;;;;;5102601;27;20486;-79
2022/11/16 12:24:15;;;;;;;0.05;0.05;;;13.90;99.90;;;;;;5102460;27;20509;-79
2022/11/16 12:26:51;;;;;;;0.13;0.03;;;13.80;99.90;;;;;;5119402;27;20043;-80
2022/11/16 12:29:44;;;;;;;0.00;0.00;;;13.70;99.90;;;;;;5102308;27;20043;-80
2022/11/16 12:32:35;;;;;;;0.05;0.00;;;13.50;99.90;;;;;;5102920;27;20055;-80
2022/11/16 12:35:16;;;;;;;0.00;0.00;;;13.40;99.90;;;;;;5119505;27;20151;-80
2022/11/16 12:37:49;;;;;;;0.00;0.00;;;13.50;99.90;;;;;;5102394;27;20072;-79
2022/11/16 12:40:34;;;;;;;0.00;0.00;;;13.60;99.90;;;;;;5118976;27;20043;-80
2022/11/16 12:43:30;;;;;;;0.00;0.00;;;13.60;99.90;;;;;;5102309;27;20043;-79
2022/11/16 12:46:21;;;;;;;0.00;0.00;;;13.50;99.90;;;;;;5102305;27;20394;-79
2022/11/16 12:49:23;;;;;;;0.22;0.20;;;13.40;99.90;;;;;;5119765;27;20043;-80
2022/11/16 12:52:16;;;;;;;0.00;0.00;;;13.30;99.90;;;;;;5102020;27;20053;-80
2022/11/16 12:54:58;;;;;;;0.05;0.05;;;13.10;99.90;;;;;;5101752;27;20039;-80
2022/11/16 12:57:44;;;;;;;1.25;0.47;;;13.00;99.90;;;;;;5089418;28;20364;-80
2022/11/16 13:00:15;;;;;;;0.00;0.00;;;12.90;99.90;;;;;;5076622;28;20083;-79
2022/11/16 13:03:16;;;;;;;0.25;0.25;;;12.80;99.90;;;;;;5095080;28;20059;-79
2022/11/16 13:05:42;;;;;;;0.65;0.55;;;12.90;99.90;;;;;;5095063;28;20044;-79
2022/11/16 13:08:38;;;;;;;0.00;0.00;;;12.90;99.90;;;;;;5095206;28;20047;-79
2022/11/16 13:11:23;;;;;;;0.00;0.00;;;12.90;99.90;;;;;;5094926;28;20043;-80
2022/11/16 13:13:54;;;;;;;0.00;0.00;;;13.00;99.90;;;;;;5095528;28;20044;-79
2022/11/16 13:16:22;;;;;;;0.00;0.00;;;13.00;99.90;;;;;;5078006;28;20062;-79
2022/11/16 13:18:47;;;;;;;0.00;0.00;;;13.10;99.90;;;;;;5094543;28;20488;-80
2022/11/16 13:21:49;;;;;;;0.40;0.20;;;13.10;99.90;;;;;;5078142;28;20055;-79
2022/11/16 13:24:37;;;;;;;0.00;0.00;;;13.10;99.90;;;;;;5077429;28;20052;-80
2022/11/16 13:27:20;;;;;;;0.00;0.00;;;13.10;99.90;;;;;;5094751;28;20114;-79
2022/11/16 13:30:01;;;;;;;0.00;0.00;;;13.00;99.90;;;;;;5094782;28;20055;-80
2022/11/16 13:32:54;;;;;;;0.65;0.40;;;12.90;99.90;;;;;;5077604;28;20131;-80
2022/11/16 13:35:21;;;;;;;0.00;0.00;;;12.80;99.90;;;;;;5077463;28;20052;-80
2022/11/16 13:37:49;;;;;;;0.47;0.47;;;12.80;99.90;;;;;;5094436;28;20047;-80
2022/11/16 13:40:26;;;;;;;0.22;0.10;;;12.80;99.90;;;;;;5094390;28;20082;-79
2022/11/16 13:43:10;;;;;;;0.28;0.20;;;12.80;99.90;;;;;;5094225;28;20480;-80
2022/11/16 13:45:42;;;;;;;0.00;0.00;;;12.80;99.90;;;;;;5077966;28;20139;-80
2022/11/16 13:48:32;;;;;;;0.00;0.00;;;12.90;99.90;;;;;;5077704;28;20094;-79
2022/11/16 13:51:02;;;;;;;0.00;0.00;;;13.00;99.90;;;;;;5094191;28;20190;-79